sensor_id;sensor_type;location;lat;lon;timestamp;P1;durP1;ratioP1;P2;durP2;ratioP2
7563;SDS011;3823;53.586;10.040;2023-04-22T04:02:11;15.70;;;6.40;;
7563;SDS011;3823;53.586;10.040;2023-04-22T04:04:37;10.68;;;6.07;;
7563;SDS011;3823;53.586;10.040;2023-04-22T04:07:02;7.88;;;7.13;;
7563;SDS011;3823;53.586;10.040;2023-04-22T04:09:28;9.00;;;6.88;;
7563;SDS011;3823;53.586;10.040;2023-04-22T04:11:53;7.65;;;6.10;;
7563;SDS011;3823;53.586;10.040;2023-04-22T04:14:20;10.25;;;7.10;;
7563;SDS011;3823;53.586;10.040;2023-04-22T04:16:46;8.65;;;7.03;;
7563;SDS011;3823;53.586;10.040;2023-04-22T04:19:11;7.45;;;6.85;;
7563;SDS011;3823;53.586;10.040;2023-04-22T04:21:37;9.27;;;6.50;;
7563;SDS011;3823;53.586;10.040;2023-04-22T04:24:04;12.20;;;7.20;;
7563;SDS011;3823;53.586;10.040;2023-04-22T04:26:30;8.38;;;7.22;;
7563;SDS011;3823;53.586;10.040;2023-04-22T04:28:56;9.88;;;6.72;;
7563;SDS011;3823;53.586;10.040;2023-04-22T04:31:22;8.00;;;7.03;;
7563;SDS011;3823;53.586;10.040;2023-04-22T04:33:48;9.90;;;7.35;;
7563;SDS011;3823;53.586;10.040;2023-04-22T04:36:14;7.35;;;6.75;;
7563;SDS011;3823;53.586;10.040;2023-04-22T04:38:40;8.40;;;7.55;;
7563;SDS011;3823;53.586;10.040;2023-04-22T04:41:06;11.75;;;7.00;;
7563;SDS011;3823;53.586;10.040;2023-04-22T04:43:33;15.13;;;10.00;;
7563;SDS011;3823;53.586;10.040;2023-04-22T04:45:59;9.50;;;8.43;;
7563;SDS011;3823;53.586;10.040;2023-04-22T04:48:25;10.25;;;8.80;;
7563;SDS011;3823;53.586;10.040;2023-04-22T04:50:51;10.45;;;7.22;;
7563;SDS011;3823;53.586;10.040;2023-04-22T04:53:18;9.77;;;7.25;;
7563;SDS011;3823;53.586;10.040;2023-04-22T04:55:45;11.60;;;7.78;;
7563;SDS011;3823;53.586;10.040;2023-04-22T04:58:11;9.07;;;6.95;;
7563;SDS011;3823;53.586;10.040;2023-04-22T05:00:36;9.35;;;8.32;;
7563;SDS011;3823;53.586;10.040;2023-04-22T05:03:02;13.63;;;10.93;;
7563;SDS011;3823;53.586;10.040;2023-04-22T05:05:28;8.95;;;8.05;;
7563;SDS011;3823;53.586;10.040;2023-04-22T05:07:54;14.25;;;6.93;;
7563;SDS011;3823;53.586;10.040;2023-04-22T05:10:19;8.68;;;7.28;;
7563;SDS011;3823;53.586;10.040;2023-04-22T05:12:49;9.10;;;6.65;;
7563;SDS011;3823;53.586;10.040;2023-04-22T05:15:15;9.25;;;7.70;;
7563;SDS011;3823;53.586;10.040;2023-04-22T05:17:41;11.50;;;7.88;;
7563;SDS011;3823;53.586;10.040;2023-04-22T05:20:07;9.02;;;8.25;;
7563;SDS011;3823;53.586;10.040;2023-04-22T05:22:33;8.48;;;7.68;;
7563;SDS011;3823;53.586;10.040;2023-04-22T05:24:59;8.88;;;7.97;;
7563;SDS011;3823;53.586;10.040;2023-04-22T05:27:25;10.85;;;7.90;;
7563;SDS011;3823;53.586;10.040;2023-04-22T05:29:50;16.55;;;8.10;;
7563;SDS011;3823;53.586;10.040;2023-04-22T05:32:16;13.70;;;7.25;;
7563;SDS011;3823;53.586;10.040;2023-04-22T05:34:41;11.90;;;8.82;;
7563;SDS011;3823;53.586;10.040;2023-04-22T05:37:07;8.15;;;6.68;;
7563;SDS011;3823;53.586;10.040;2023-04-22T05:39:34;9.43;;;7.82;;
7563;SDS011;3823;53.586;10.040;2023-04-22T05:42:00;10.63;;;8.07;;
7563;SDS011;3823;53.586;10.040;2023-04-22T05:44:26;8.60;;;7.18;;
7563;SDS011;3823;53.586;10.040;2023-04-22T05:46:52;8.52;;;7.68;;
7563;SDS011;3823;53.586;10.040;2023-04-22T05:49:18;9.57;;;7.72;;
7563;SDS011;3823;53.586;10.040;2023-04-22T05:51:43;8.60;;;7.47;;
7563;SDS011;3823;53.586;10.040;2023-04-22T05:54:09;8.60;;;7.47;;
7563;SDS011;3823;53.586;10.040;2023-04-22T05:56:34;9.40;;;7.75;;
7563;SDS011;3823;53.586;10.040;2023-04-22T05:59:00;10.65;;;8.05;;
7563;SDS011;3823;53.586;10.040;2023-04-22T06:01:26;8.75;;;7.93;;
7563;SDS011;3823;53.586;10.040;2023-04-22T06:03:51;8.93;;;8.07;;
7563;SDS011;3823;53.586;10.040;2023-04-22T06:06:17;8.70;;;7.75;;
7563;SDS011;3823;53.586;10.040;2023-04-22T06:08:43;10.32;;;8.45;;
7563;SDS011;3823;53.586;10.040;2023-04-22T06:11:09;11.25;;;8.68;;
7563;SDS011;3823;53.586;10.040;2023-04-22T06:13:34;10.35;;;7.90;;
7563;SDS011;3823;53.586;10.040;2023-04-22T06:16:00;10.45;;;8.25;;
7563;SDS011;3823;53.586;10.040;2023-04-22T06:18:26;10.75;;;7.45;;
7563;SDS011;3823;53.586;10.040;2023-04-22T06:20:52;11.38;;;8.30;;
7563;SDS011;3823;53.586;10.040;2023-04-22T06:23:18;9.23;;;8.30;;
7563;SDS011;3823;53.586;10.040;2023-04-22T06:25:44;8.88;;;7.85;;
7563;SDS011;3823;53.586;10.040;2023-04-22T06:28:11;9.45;;;8.30;;
7563;SDS011;3823;53.586;10.040;2023-04-22T06:30:36;9.45;;;8.48;;
7563;SDS011;3823;53.586;10.040;2023-04-22T06:33:02;10.65;;;8.43;;
7563;SDS011;3823;53.586;10.040;2023-04-22T06:35:27;10.98;;;8.38;;
7563;SDS011;3823;53.586;10.040;2023-04-22T06:37:53;12.13;;;8.48;;
7563;SDS011;3823;53.586;10.040;2023-04-22T06:40:21;9.15;;;8.15;;
7563;SDS011;3823;53.586;10.040;2023-04-22T06:42:47;9.85;;;8.63;;
7563;SDS011;3823;53.586;10.040;2023-04-22T06:45:12;9.60;;;8.20;;
7563;SDS011;3823;53.586;10.040;2023-04-22T06:47:38;9.45;;;8.45;;
7563;SDS011;3823;53.586;10.040;2023-04-22T06:50:05;12.93;;;8.02;;
7563;SDS011;3823;53.586;10.040;2023-04-22T06:52:32;10.40;;;7.93;;
7563;SDS011;3823;53.586;10.040;2023-04-22T06:54:58;9.73;;;8.18;;
7563;SDS011;3823;53.586;10.040;2023-04-22T06:57:23;10.10;;;7.72;;
7563;SDS011;3823;53.586;10.040;2023-04-22T06:59:49;10.13;;;9.00;;
7563;SDS011;3823;53.586;10.040;2023-04-22T07:02:15;9.95;;;7.90;;
7563;SDS011;3823;53.586;10.040;2023-04-22T07:04:40;11.45;;;9.68;;
7563;SDS011;3823;53.586;10.040;2023-04-22T07:07:06;11.30;;;8.85;;
7563;SDS011;3823;53.586;10.040;2023-04-22T07:09:32;10.77;;;8.73;;
7563;SDS011;3823;53.586;10.040;2023-04-22T07:11:57;16.65;;;9.65;;
7563;SDS011;3823;53.586;10.040;2023-04-22T07:14:24;9.80;;;8.80;;
7563;SDS011;3823;53.586;10.040;2023-04-22T07:16:51;9.60;;;8.15;;
7563;SDS011;3823;53.586;10.040;2023-04-22T07:19:16;10.45;;;9.27;;
7563;SDS011;3823;53.586;10.040;2023-04-22T07:21:42;11.57;;;8.88;;
7563;SDS011;3823;53.586;10.040;2023-04-22T07:24:07;13.35;;;7.82;;
7563;SDS011;3823;53.586;10.040;2023-04-22T07:26:37;11.30;;;8.02;;
7563;SDS011;3823;53.586;10.040;2023-04-22T07:29:05;8.35;;;7.43;;
7563;SDS011;3823;53.586;10.040;2023-04-22T07:31:31;10.50;;;8.38;;
7563;SDS011;3823;53.586;10.040;2023-04-22T07:33:57;9.77;;;8.77;;
7563;SDS011;3823;53.586;10.040;2023-04-22T07:36:23;8.52;;;7.68;;
7563;SDS011;3823;53.586;10.040;2023-04-22T07:38:48;9.15;;;8.35;;
7563;SDS011;3823;53.586;10.040;2023-04-22T07:41:14;10.02;;;8.18;;
7563;SDS011;3823;53.586;10.040;2023-04-22T07:43:40;12.05;;;7.80;;
7563;SDS011;3823;53.586;10.040;2023-04-22T07:46:05;8.88;;;7.97;;
7563;SDS011;3823;53.586;10.040;2023-04-22T07:48:31;10.70;;;8.82;;
7563;SDS011;3823;53.586;10.040;2023-04-22T07:50:56;12.55;;;8.13;;
7563;SDS011;3823;53.586;10.040;2023-04-22T07:53:22;12.80;;;7.85;;
7563;SDS011;3823;53.586;10.040;2023-04-22T07:55:48;8.05;;;7.25;;
7563;SDS011;3823;53.586;10.040;2023-04-22T07:58:14;12.10;;;8.85;;
7563;SDS011;3823;53.586;10.040;2023-04-22T08:00:40;9.20;;;8.23;;
7563;SDS011;3823;53.586;10.040;2023-04-22T08:03:05;9.35;;;8.40;;
7563;SDS011;3823;53.586;10.040;2023-04-22T08:05:31;11.25;;;8.15;;
7563;SDS011;3823;53.586;10.040;2023-04-22T08:07:56;13.30;;;8.88;;
7563;SDS011;3823;53.586;10.040;2023-04-22T08:10:22;11.55;;;7.88;;
7563;SDS011;3823;53.586;10.040;2023-04-22T08:12:48;9.63;;;8.63;;
7563;SDS011;3823;53.586;10.040;2023-04-22T08:15:13;8.82;;;7.85;;
7563;SDS011;3823;53.586;10.040;2023-04-22T08:17:39;9.70;;;8.55;;
7563;SDS011;3823;53.586;10.040;2023-04-22T08:20:04;12.48;;;9.00;;
7563;SDS011;3823;53.586;10.040;2023-04-22T08:22:31;13.00;;;8.38;;
7563;SDS011;3823;53.586;10.040;2023-04-22T08:24:57;11.18;;;8.43;;
7563;SDS011;3823;53.586;10.040;2023-04-22T08:27:23;9.80;;;8.80;;
7563;SDS011;3823;53.586;10.040;2023-04-22T08:29:49;10.02;;;9.02;;
7563;SDS011;3823;53.586;10.040;2023-04-22T08:32:15;9.95;;;7.70;;
7563;SDS011;3823;53.586;10.040;2023-04-22T08:34:43;9.70;;;8.40;;
7563;SDS011;3823;53.586;10.040;2023-04-22T08:37:09;9.25;;;8.30;;
7563;SDS011;3823;53.586;10.040;2023-04-22T08:39:35;9.63;;;8.65;;
7563;SDS011;3823;53.586;10.040;2023-04-22T08:42:00;8.15;;;7.40;;
7563;SDS011;3823;53.586;10.040;2023-04-22T08:44:26;9.18;;;7.82;;
7563;SDS011;3823;53.586;10.040;2023-04-22T08:46:52;8.95;;;8.07;;
7563;SDS011;3823;53.586;10.040;2023-04-22T08:49:19;8.45;;;7.60;;
7563;SDS011;3823;53.586;10.040;2023-04-22T08:51:48;8.57;;;7.57;;
7563;SDS011;3823;53.586;10.040;2023-04-22T08:54:14;10.10;;;7.68;;
7563;SDS011;3823;53.586;10.040;2023-04-22T08:56:40;11.77;;;8.23;;
7563;SDS011;3823;53.586;10.040;2023-04-22T08:59:11;11.23;;;8.18;;
7563;SDS011;3823;53.586;10.040;2023-04-22T09:01:37;8.32;;;7.47;;
7563;SDS011;3823;53.586;10.040;2023-04-22T09:04:05;13.07;;;7.82;;
7563;SDS011;3823;53.586;10.040;2023-04-22T09:06:32;9.05;;;7.75;;
7563;SDS011;3823;53.586;10.040;2023-04-22T09:08:58;11.75;;;8.35;;
7563;SDS011;3823;53.586;10.040;2023-04-22T09:11:28;15.30;;;7.38;;
7563;SDS011;3823;53.586;10.040;2023-04-22T09:13:55;9.40;;;8.00;;
7563;SDS011;3823;53.586;10.040;2023-04-22T09:16:20;9.75;;;7.60;;
7563;SDS011;3823;53.586;10.040;2023-04-22T09:18:46;11.75;;;7.75;;
7563;SDS011;3823;53.586;10.040;2023-04-22T09:21:11;8.07;;;7.00;;
7563;SDS011;3823;53.586;10.040;2023-04-22T09:23:44;7.97;;;7.18;;
7563;SDS011;3823;53.586;10.040;2023-04-22T09:26:14;8.02;;;6.70;;
7563;SDS011;3823;53.586;10.040;2023-04-22T09:28:49;9.55;;;6.90;;
7563;SDS011;3823;53.586;10.040;2023-04-22T09:31:16;9.48;;;7.28;;
7563;SDS011;3823;53.586;10.040;2023-04-22T09:33:45;11.07;;;6.93;;
7563;SDS011;3823;53.586;10.040;2023-04-22T09:36:12;11.43;;;7.18;;
7563;SDS011;3823;53.586;10.040;2023-04-22T09:38:38;7.80;;;7.10;;
7563;SDS011;3823;53.586;10.040;2023-04-22T09:41:10;7.60;;;6.50;;
7563;SDS011;3823;53.586;10.040;2023-04-22T09:43:36;10.85;;;8.02;;
7563;SDS011;3823;53.586;10.040;2023-04-22T09:46:02;10.07;;;5.85;;
7563;SDS011;3823;53.586;10.040;2023-04-22T09:48:28;8.07;;;6.90;;
7563;SDS011;3823;53.586;10.040;2023-04-22T09:50:54;8.02;;;7.22;;
7563;SDS011;3823;53.586;10.040;2023-04-22T09:53:20;7.85;;;6.35;;
7563;SDS011;3823;53.586;10.040;2023-04-22T09:55:48;11.88;;;6.28;;
7563;SDS011;3823;53.586;10.040;2023-04-22T09:58:16;10.65;;;7.22;;
7563;SDS011;3823;53.586;10.040;2023-04-22T10:00:44;7.25;;;6.63;;
7563;SDS011;3823;53.586;10.040;2023-04-22T10:03:12;9.95;;;6.40;;
7563;SDS011;3823;53.586;10.040;2023-04-22T10:05:38;9.45;;;6.72;;
7563;SDS011;3823;53.586;10.040;2023-04-22T10:08:05;7.53;;;5.88;;
7563;SDS011;3823;53.586;10.040;2023-04-22T10:10:32;8.88;;;6.88;;
7563;SDS011;3823;53.586;10.040;2023-04-22T10:13:01;7.30;;;6.60;;
7563;SDS011;3823;53.586;10.040;2023-04-22T10:15:31;7.57;;;6.43;;
7563;SDS011;3823;53.586;10.040;2023-04-22T10:18:00;5.88;;;5.38;;
7563;SDS011;3823;53.586;10.040;2023-04-22T10:20:28;6.32;;;5.72;;
7563;SDS011;3823;53.586;10.040;2023-04-22T10:22:55;6.93;;;6.22;;
7563;SDS011;3823;53.586;10.040;2023-04-22T10:25:22;8.18;;;7.00;;
7563;SDS011;3823;53.586;10.040;2023-04-22T10:28:05;9.10;;;6.60;;
7563;SDS011;3823;53.586;10.040;2023-04-22T10:30:33;5.97;;;5.40;;
7563;SDS011;3823;53.586;10.040;2023-04-22T10:38:30;5.70;;;5.30;;
7563;SDS011;3823;53.586;10.040;2023-04-22T10:40:58;7.47;;;5.78;;
7563;SDS011;3823;53.586;10.040;2023-04-22T10:48:55;7.07;;;6.47;;
7563;SDS011;3823;53.586;10.040;2023-04-22T10:51:37;9.55;;;5.15;;
7563;SDS011;3823;53.586;10.040;2023-04-22T10:54:02;7.35;;;5.65;;
7563;SDS011;3823;53.586;10.040;2023-04-22T10:56:28;6.22;;;5.63;;
7563;SDS011;3823;53.586;10.040;2023-04-22T10:58:57;8.70;;;6.38;;
7563;SDS011;3823;53.586;10.040;2023-04-22T11:01:22;7.03;;;5.90;;
7563;SDS011;3823;53.586;10.040;2023-04-22T11:03:52;7.82;;;6.22;;
7563;SDS011;3823;53.586;10.040;2023-04-22T11:06:19;6.10;;;5.35;;
7563;SDS011;3823;53.586;10.040;2023-04-22T11:08:49;7.25;;;5.35;;
7563;SDS011;3823;53.586;10.040;2023-04-22T11:11:31;6.03;;;5.53;;
7563;SDS011;3823;53.586;10.040;2023-04-22T11:13:56;6.07;;;5.57;;
7563;SDS011;3823;53.586;10.040;2023-04-22T11:16:22;7.28;;;5.88;;
7563;SDS011;3823;53.586;10.040;2023-04-22T11:18:48;5.55;;;4.95;;
7563;SDS011;3823;53.586;10.040;2023-04-22T11:21:14;6.30;;;5.78;;
7563;SDS011;3823;53.586;10.040;2023-04-22T11:23:47;6.38;;;5.38;;
7563;SDS011;3823;53.586;10.040;2023-04-22T11:26:15;9.05;;;5.07;;
7563;SDS011;3823;53.586;10.040;2023-04-22T11:28:46;6.20;;;5.28;;
7563;SDS011;3823;53.586;10.040;2023-04-22T11:31:12;8.20;;;5.50;;
7563;SDS011;3823;53.586;10.040;2023-04-22T11:33:39;6.95;;;5.32;;
7563;SDS011;3823;53.586;10.040;2023-04-22T11:36:11;5.10;;;4.60;;
7563;SDS011;3823;53.586;10.040;2023-04-22T11:38:37;5.07;;;4.68;;
7563;SDS011;3823;53.586;10.040;2023-04-22T11:41:03;9.00;;;4.53;;
7563;SDS011;3823;53.586;10.040;2023-04-22T11:43:29;7.70;;;4.93;;
7563;SDS011;3823;53.586;10.040;2023-04-22T11:45:55;5.40;;;4.95;;
7563;SDS011;3823;53.586;10.040;2023-04-22T11:48:21;6.43;;;5.03;;
7563;SDS011;3823;53.586;10.040;2023-04-22T11:50:47;5.10;;;4.70;;
7563;SDS011;3823;53.586;10.040;2023-04-22T11:53:13;6.22;;;5.63;;
7563;SDS011;3823;53.586;10.040;2023-04-22T11:55:41;5.32;;;4.93;;
7563;SDS011;3823;53.586;10.040;2023-04-22T11:58:16;7.18;;;4.57;;
7563;SDS011;3823;53.586;10.040;2023-04-22T12:00:48;7.20;;;5.15;;
7563;SDS011;3823;53.586;10.040;2023-04-22T12:03:18;4.57;;;4.18;;
7563;SDS011;3823;53.586;10.040;2023-04-22T12:05:56;6.10;;;5.30;;
7563;SDS011;3823;53.586;10.040;2023-04-22T12:11:04;7.60;;;6.78;;
7563;SDS011;3823;53.586;10.040;2023-04-22T12:13:32;5.57;;;5.10;;
7563;SDS011;3823;53.586;10.040;2023-04-22T12:16:09;5.30;;;4.90;;
7563;SDS011;3823;53.586;10.040;2023-04-22T12:18:39;8.57;;;5.68;;
7563;SDS011;3823;53.586;10.040;2023-04-22T12:21:12;5.50;;;4.95;;
7563;SDS011;3823;53.586;10.040;2023-04-22T12:23:39;5.22;;;4.72;;
7563;SDS011;3823;53.586;10.040;2023-04-22T12:26:06;5.07;;;4.68;;
7563;SDS011;3823;53.586;10.040;2023-04-22T12:28:32;8.63;;;5.05;;
7563;SDS011;3823;53.586;10.040;2023-04-22T12:30:58;5.55;;;4.72;;
7563;SDS011;3823;53.586;10.040;2023-04-22T12:33:23;4.97;;;4.57;;
7563;SDS011;3823;53.586;10.040;2023-04-22T12:35:49;5.25;;;4.75;;
7563;SDS011;3823;53.586;10.040;2023-04-22T12:38:16;6.10;;;4.82;;
7563;SDS011;3823;53.586;10.040;2023-04-22T12:40:42;5.75;;;5.20;;
7563;SDS011;3823;53.586;10.040;2023-04-22T12:43:08;5.68;;;5.20;;
7563;SDS011;3823;53.586;10.040;2023-04-22T12:45:33;5.70;;;5.20;;
7563;SDS011;3823;53.586;10.040;2023-04-22T12:47:59;7.60;;;5.03;;
7563;SDS011;3823;53.586;10.040;2023-04-22T12:50:25;8.52;;;5.10;;
7563;SDS011;3823;53.586;10.040;2023-04-22T12:52:50;6.20;;;4.82;;
7563;SDS011;3823;53.586;10.040;2023-04-22T12:55:16;5.60;;;4.82;;
7563;SDS011;3823;53.586;10.040;2023-04-22T12:57:43;7.88;;;4.90;;
7563;SDS011;3823;53.586;10.040;2023-04-22T13:00:10;4.57;;;4.18;;
7563;SDS011;3823;53.586;10.040;2023-04-22T13:02:38;4.95;;;4.47;;
7563;SDS011;3823;53.586;10.040;2023-04-22T13:05:08;6.07;;;5.03;;
7563;SDS011;3823;53.586;10.040;2023-04-22T13:07:34;5.68;;;4.93;;
7563;SDS011;3823;53.586;10.040;2023-04-22T13:10:00;7.57;;;5.00;;
7563;SDS011;3823;53.586;10.040;2023-04-22T13:12:26;5.75;;;4.75;;
7563;SDS011;3823;53.586;10.040;2023-04-22T13:14:51;11.15;;;4.53;;
7563;SDS011;3823;53.586;10.040;2023-04-22T13:17:17;6.07;;;4.03;;
7563;SDS011;3823;53.586;10.040;2023-04-22T13:19:42;4.60;;;4.20;;
7563;SDS011;3823;53.586;10.040;2023-04-22T13:22:08;5.00;;;4.50;;
7563;SDS011;3823;53.586;10.040;2023-04-22T13:24:33;5.03;;;4.53;;
7563;SDS011;3823;53.586;10.040;2023-04-22T13:26:59;4.38;;;4.07;;
7563;SDS011;3823;53.586;10.040;2023-04-22T13:29:25;7.63;;;4.60;;
7563;SDS011;3823;53.586;10.040;2023-04-22T13:31:51;4.22;;;3.83;;
7563;SDS011;3823;53.586;10.040;2023-04-22T13:34:16;4.47;;;4.18;;
7563;SDS011;3823;53.586;10.040;2023-04-22T13:36:42;4.53;;;3.67;;
7563;SDS011;3823;53.586;10.040;2023-04-22T13:39:07;4.07;;;3.78;;
7563;SDS011;3823;53.586;10.040;2023-04-22T13:41:33;6.00;;;4.40;;
7563;SDS011;3823;53.586;10.040;2023-04-22T13:44:00;4.78;;;4.38;;
7563;SDS011;3823;53.586;10.040;2023-04-22T13:46:27;4.40;;;4.00;;
7563;SDS011;3823;53.586;10.040;2023-04-22T13:48:53;5.85;;;5.25;;
7563;SDS011;3823;53.586;10.040;2023-04-22T13:51:20;5.25;;;4.05;;
7563;SDS011;3823;53.586;10.040;2023-04-22T13:53:46;4.03;;;3.72;;
7563;SDS011;3823;53.586;10.040;2023-04-22T13:56:12;5.22;;;3.88;;
7563;SDS011;3823;53.586;10.040;2023-04-22T13:58:39;4.57;;;4.28;;
7563;SDS011;3823;53.586;10.040;2023-04-22T14:01:06;4.72;;;4.10;;
7563;SDS011;3823;53.586;10.040;2023-04-22T14:03:32;4.22;;;3.92;;
7563;SDS011;3823;53.586;10.040;2023-04-22T14:05:58;4.63;;;4.18;;
7563;SDS011;3823;53.586;10.040;2023-04-22T14:08:25;3.88;;;3.58;;
7563;SDS011;3823;53.586;10.040;2023-04-22T14:10:50;4.55;;;3.97;;
7563;SDS011;3823;53.586;10.040;2023-04-22T14:13:16;5.78;;;3.47;;
7563;SDS011;3823;53.586;10.040;2023-04-22T14:15:42;3.80;;;3.40;;
7563;SDS011;3823;53.586;10.040;2023-04-22T14:18:08;4.40;;;4.00;;
7563;SDS011;3823;53.586;10.040;2023-04-22T14:20:33;4.97;;;4.43;;
7563;SDS011;3823;53.586;10.040;2023-04-22T14:22:59;4.13;;;3.72;;
7563;SDS011;3823;53.586;10.040;2023-04-22T14:25:25;6.28;;;3.78;;
7563;SDS011;3823;53.586;10.040;2023-04-22T14:27:50;7.90;;;4.18;;
7563;SDS011;3823;53.586;10.040;2023-04-22T14:30:16;4.35;;;4.05;;
7563;SDS011;3823;53.586;10.040;2023-04-22T14:32:42;4.35;;;4.05;;
7563;SDS011;3823;53.586;10.040;2023-04-22T14:35:08;4.30;;;4.00;;
7563;SDS011;3823;53.586;10.040;2023-04-22T14:37:34;4.28;;;3.97;;
7563;SDS011;3823;53.586;10.040;2023-04-22T14:40:00;4.57;;;4.20;;
7563;SDS011;3823;53.586;10.040;2023-04-22T14:42:25;4.68;;;4.03;;
7563;SDS011;3823;53.586;10.040;2023-04-22T14:44:51;3.80;;;3.55;;
7563;SDS011;3823;53.586;10.040;2023-04-22T14:47:17;4.32;;;3.92;;
7563;SDS011;3823;53.586;10.040;2023-04-22T14:49:43;4.97;;;4.50;;
7563;SDS011;3823;53.586;10.040;2023-04-22T14:52:08;4.10;;;3.70;;
7563;SDS011;3823;53.586;10.040;2023-04-22T14:54:34;5.35;;;4.20;;
7563;SDS011;3823;53.586;10.040;2023-04-22T14:57:00;5.70;;;3.70;;
7563;SDS011;3823;53.586;10.040;2023-04-22T14:59:25;4.85;;;3.83;;
7563;SDS011;3823;53.586;10.040;2023-04-22T15:01:51;4.60;;;4.20;;
7563;SDS011;3823;53.586;10.040;2023-04-22T15:04:17;4.68;;;4.38;;
7563;SDS011;3823;53.586;10.040;2023-04-22T15:06:43;7.65;;;6.88;;
7563;SDS011;3823;53.586;10.040;2023-04-22T15:09:09;35.63;;;30.70;;
7563;SDS011;3823;53.586;10.040;2023-04-22T15:11:35;7.53;;;6.82;;
7563;SDS011;3823;53.586;10.040;2023-04-22T15:14:01;5.68;;;4.13;;
7563;SDS011;3823;53.586;10.040;2023-04-22T15:16:28;4.40;;;4.00;;
7563;SDS011;3823;53.586;10.040;2023-04-22T15:18:54;4.10;;;3.80;;
7563;SDS011;3823;53.586;10.040;2023-04-22T15:21:19;6.28;;;3.90;;
7563;SDS011;3823;53.586;10.040;2023-04-22T15:23:45;6.55;;;4.40;;
7563;SDS011;3823;53.586;10.040;2023-04-22T15:26:10;7.18;;;4.20;;
7563;SDS011;3823;53.586;10.040;2023-04-22T15:28:36;4.30;;;3.90;;
7563;SDS011;3823;53.586;10.040;2023-04-22T15:31:02;4.45;;;4.05;;
7563;SDS011;3823;53.586;10.040;2023-04-22T15:33:27;5.75;;;3.90;;
7563;SDS011;3823;53.586;10.040;2023-04-22T15:35:53;3.83;;;3.55;;
7563;SDS011;3823;53.586;10.040;2023-04-22T15:38:18;4.10;;;3.80;;
7563;SDS011;3823;53.586;10.040;2023-04-22T15:40:44;3.92;;;3.63;;
7563;SDS011;3823;53.586;10.040;2023-04-22T15:43:10;7.63;;;3.17;;
7563;SDS011;3823;53.586;10.040;2023-04-22T15:45:35;4.53;;;3.97;;
7563;SDS011;3823;53.586;10.040;2023-04-22T15:48:01;5.15;;;3.80;;
7563;SDS011;3823;53.586;10.040;2023-04-22T15:50:29;4.90;;;3.55;;
7563;SDS011;3823;53.586;10.040;2023-04-22T15:52:55;4.40;;;3.72;;
7563;SDS011;3823;53.586;10.040;2023-04-22T15:55:20;4.25;;;3.63;;
7563;SDS011;3823;53.586;10.040;2023-04-22T15:57:46;4.63;;;4.22;;
7563;SDS011;3823;53.586;10.040;2023-04-22T16:00:12;5.50;;;5.00;;
7563;SDS011;3823;53.586;10.040;2023-04-22T16:02:38;3.88;;;3.58;;
7563;SDS011;3823;53.586;10.040;2023-04-22T16:05:04;8.43;;;4.03;;
7563;SDS011;3823;53.586;10.040;2023-04-22T16:07:30;5.07;;;3.60;;
7563;SDS011;3823;53.586;10.040;2023-04-22T16:09:55;4.40;;;3.60;;
7563;SDS011;3823;53.586;10.040;2023-04-22T16:12:21;3.40;;;3.10;;
7563;SDS011;3823;53.586;10.040;2023-04-22T16:14:47;6.38;;;3.72;;
7563;SDS011;3823;53.586;10.040;2023-04-22T16:17:13;4.97;;;3.60;;
7563;SDS011;3823;53.586;10.040;2023-04-22T16:19:39;4.22;;;2.72;;
7563;SDS011;3823;53.586;10.040;2023-04-22T16:22:05;4.50;;;4.10;;
7563;SDS011;3823;53.586;10.040;2023-04-22T16:24:31;4.32;;;3.90;;
7563;SDS011;3823;53.586;10.040;2023-04-22T16:26:57;5.70;;;3.45;;
7563;SDS011;3823;53.586;10.040;2023-04-22T16:29:22;3.28;;;2.83;;
7563;SDS011;3823;53.586;10.040;2023-04-22T16:31:48;3.28;;;3.08;;
7563;SDS011;3823;53.586;10.040;2023-04-22T16:34:14;3.53;;;3.22;;
7563;SDS011;3823;53.586;10.040;2023-04-22T16:36:40;4.40;;;3.70;;
7563;SDS011;3823;53.586;10.040;2023-04-22T16:39:05;5.25;;;3.17;;
7563;SDS011;3823;53.586;10.040;2023-04-22T16:41:32;3.55;;;3.25;;
7563;SDS011;3823;53.586;10.040;2023-04-22T16:43:58;6.93;;;5.10;;
7563;SDS011;3823;53.586;10.040;2023-04-22T16:46:24;4.50;;;3.45;;
7563;SDS011;3823;53.586;10.040;2023-04-22T16:48:50;12.07;;;3.80;;
7563;SDS011;3823;53.586;10.040;2023-04-22T16:51:16;3.92;;;3.25;;
7563;SDS011;3823;53.586;10.040;2023-04-22T16:53:41;5.78;;;3.30;;
7563;SDS011;3823;53.586;10.040;2023-04-22T16:56:07;5.47;;;3.90;;
7563;SDS011;3823;53.586;10.040;2023-04-22T16:58:32;5.20;;;4.05;;
7563;SDS011;3823;53.586;10.040;2023-04-22T17:00:58;4.20;;;3.80;;
7563;SDS011;3823;53.586;10.040;2023-04-22T17:03:24;3.92;;;3.33;;
7563;SDS011;3823;53.586;10.040;2023-04-22T17:05:49;3.88;;;3.33;;
7563;SDS011;3823;53.586;10.040;2023-04-22T17:08:15;9.45;;;3.40;;
7563;SDS011;3823;53.586;10.040;2023-04-22T17:10:42;3.55;;;3.35;;
7563;SDS011;3823;53.586;10.040;2023-04-22T17:13:09;7.78;;;3.83;;
7563;SDS011;3823;53.586;10.040;2023-04-22T17:15:39;4.40;;;4.00;;
7563;SDS011;3823;53.586;10.040;2023-04-22T17:18:05;3.53;;;3.22;;
7563;SDS011;3823;53.586;10.040;2023-04-22T17:20:32;6.20;;;4.40;;
7563;SDS011;3823;53.586;10.040;2023-04-22T17:22:58;4.03;;;3.25;;
7563;SDS011;3823;53.586;10.040;2023-04-22T17:25:24;4.25;;;3.75;;
7563;SDS011;3823;53.586;10.040;2023-04-22T17:27:50;3.55;;;3.15;;
7563;SDS011;3823;53.586;10.040;2023-04-22T17:30:16;4.60;;;3.92;;
7563;SDS011;3823;53.586;10.040;2023-04-22T17:32:41;11.65;;;4.55;;
7563;SDS011;3823;53.586;10.040;2023-04-22T17:35:07;5.22;;;4.00;;
7563;SDS011;3823;53.586;10.040;2023-04-22T17:37:33;7.00;;;3.70;;
7563;SDS011;3823;53.586;10.040;2023-04-22T17:39:59;5.47;;;3.80;;
7563;SDS011;3823;53.586;10.040;2023-04-22T17:42:24;5.15;;;4.63;;
7563;SDS011;3823;53.586;10.040;2023-04-22T17:44:50;3.63;;;3.33;;
7563;SDS011;3823;53.586;10.040;2023-04-22T17:47:15;3.95;;;3.58;;
7563;SDS011;3823;53.586;10.040;2023-04-22T17:49:41;7.00;;;3.53;;
7563;SDS011;3823;53.586;10.040;2023-04-22T17:52:06;14.50;;;3.47;;
7563;SDS011;3823;53.586;10.040;2023-04-22T17:54:32;3.80;;;3.50;;
7563;SDS011;3823;53.586;10.040;2023-04-22T17:56:57;8.10;;;3.65;;
7563;SDS011;3823;53.586;10.040;2023-04-22T17:59:23;5.50;;;4.00;;
7563;SDS011;3823;53.586;10.040;2023-04-22T18:01:49;4.97;;;4.10;;
7563;SDS011;3823;53.586;10.040;2023-04-22T18:04:15;9.95;;;3.80;;
7563;SDS011;3823;53.586;10.040;2023-04-22T18:06:40;6.00;;;4.00;;
7563;SDS011;3823;53.586;10.040;2023-04-22T18:09:06;7.97;;;3.70;;
7563;SDS011;3823;53.586;10.040;2023-04-22T18:11:32;3.92;;;3.63;;
7563;SDS011;3823;53.586;10.040;2023-04-22T18:13:57;4.30;;;3.80;;
7563;SDS011;3823;53.586;10.040;2023-04-22T18:16:23;8.90;;;3.53;;
7563;SDS011;3823;53.586;10.040;2023-04-22T18:18:48;5.10;;;3.92;;
7563;SDS011;3823;53.586;10.040;2023-04-22T18:21:14;4.13;;;3.83;;
7563;SDS011;3823;53.586;10.040;2023-04-22T18:23:40;4.40;;;4.00;;
7563;SDS011;3823;53.586;10.040;2023-04-22T18:26:06;4.28;;;3.40;;
7563;SDS011;3823;53.586;10.040;2023-04-22T18:28:35;3.92;;;3.63;;
7563;SDS011;3823;53.586;10.040;2023-04-22T18:31:03;4.10;;;3.80;;
7563;SDS011;3823;53.586;10.040;2023-04-22T18:33:29;4.57;;;3.78;;
7563;SDS011;3823;53.586;10.040;2023-04-22T18:35:55;4.90;;;3.35;;
7563;SDS011;3823;53.586;10.040;2023-04-22T18:38:21;8.65;;;3.70;;
7563;SDS011;3823;53.586;10.040;2023-04-22T18:40:46;4.20;;;3.67;;
7563;SDS011;3823;53.586;10.040;2023-04-22T18:43:12;4.85;;;4.00;;
7563;SDS011;3823;53.586;10.040;2023-04-22T18:45:37;6.63;;;4.72;;
7563;SDS011;3823;53.586;10.040;2023-04-22T18:48:03;3.72;;;3.42;;
7563;SDS011;3823;53.586;10.040;2023-04-22T18:50:28;5.03;;;4.00;;
7563;SDS011;3823;53.586;10.040;2023-04-22T18:52:54;10.57;;;4.15;;
7563;SDS011;3823;53.586;10.040;2023-04-22T18:55:19;7.78;;;3.85;;
7563;SDS011;3823;53.586;10.040;2023-04-22T18:57:45;3.92;;;3.45;;
7563;SDS011;3823;53.586;10.040;2023-04-22T19:00:11;6.03;;;3.30;;
7563;SDS011;3823;53.586;10.040;2023-04-22T19:02:37;4.93;;;3.65;;
7563;SDS011;3823;53.586;10.040;2023-04-22T19:05:03;4.47;;;4.07;;
7563;SDS011;3823;53.586;10.040;2023-04-22T19:07:28;6.35;;;3.65;;